sensor_id;sensor_type;location;lat;lon;timestamp;temperature;humidity
35796;DHT22;21916;52.428;13.302;2023-11-18T00:01:31;5.00;99.90
35796;DHT22;21916;52.428;13.302;2023-11-18T00:03:58;5.00;99.90
35796;DHT22;21916;52.428;13.302;2023-11-18T00:06:24;5.00;99.90
35796;DHT22;21916;52.428;13.302;2023-11-18T00:08:50;5.00;99.90
35796;DHT22;21916;52.428;13.302;2023-11-18T00:11:15;5.00;99.90
35796;DHT22;21916;52.428;13.302;2023-11-18T00:13:41;5.00;99.90
35796;DHT22;21916;52.428;13.302;2023-11-18T00:16:09;5.00;99.90
35796;DHT22;21916;52.428;13.302;2023-11-18T00:18:41;5.00;99.90
35796;DHT22;21916;52.428;13.302;2023-11-18T00:21:06;5.10;99.90
35796;DHT22;21916;52.428;13.302;2023-11-18T00:23:33;5.00;99.90
35796;DHT22;21916;52.428;13.302;2023-11-18T00:25:59;5.00;99.90
35796;DHT22;21916;52.428;13.302;2023-11-18T00:28:25;5.00;99.90
35796;DHT22;21916;52.428;13.302;2023-11-18T00:30:51;4.90;99.90
35796;DHT22;21916;52.428;13.302;2023-11-18T00:33:17;5.00;99.90
35796;DHT22;21916;52.428;13.302;2023-11-18T00:35:43;4.90;99.90
35796;DHT22;21916;52.428;13.302;2023-11-18T00:38:11;4.90;99.90
35796;DHT22;21916;52.428;13.302;2023-11-18T00:40:37;4.80;99.90
35796;DHT22;21916;52.428;13.302;2023-11-18T00:43:03;4.90;99.90
35796;DHT22;21916;52.428;13.302;2023-11-18T00:45:28;4.80;99.90
35796;DHT22;21916;52.428;13.302;2023-11-18T00:47:54;4.90;99.90
35796;DHT22;21916;52.428;13.302;2023-11-18T00:50:20;5.00;99.90
35796;DHT22;21916;52.428;13.302;2023-11-18T00:52:46;4.90;99.90
35796;DHT22;21916;52.428;13.302;2023-11-18T00:55:15;5.00;99.90
35796;DHT22;21916;52.428;13.302;2023-11-18T00:57:45;4.90;99.90
35796;DHT22;21916;52.428;13.302;2023-11-18T01:00:14;4.90;99.90
35796;DHT22;21916;52.428;13.302;2023-11-18T01:02:44;4.90;99.90
35796;DHT22;21916;52.428;13.302;2023-11-18T01:05:12;4.90;99.90
35796;DHT22;21916;52.428;13.302;2023-11-18T01:07:41;5.00;99.90
35796;DHT22;21916;52.428;13.302;2023-11-18T01:10:07;5.00;99.90
35796;DHT22;21916;52.428;13.302;2023-11-18T01:12:34;5.00;99.90
35796;DHT22;21916;52.428;13.302;2023-11-18T01:15:01;4.90;99.90
35796;DHT22;21916;52.428;13.302;2023-11-18T01:17:29;4.90;99.90
35796;DHT22;21916;52.428;13.302;2023-11-18T01:19:58;4.90;99.90
35796;DHT22;21916;52.428;13.302;2023-11-18T01:22:25;5.00;99.90
35796;DHT22;21916;52.428;13.302;2023-11-18T01:24:51;4.90;99.90
35796;DHT22;21916;52.428;13.302;2023-11-18T01:27:17;4.90;99.90
35796;DHT22;21916;52.428;13.302;2023-11-18T01:29:45;4.90;99.90
35796;DHT22;21916;52.428;13.302;2023-11-18T01:32:12;5.00;99.90
35796;DHT22;21916;52.428;13.302;2023-11-18T01:34:39;5.00;99.90
35796;DHT22;21916;52.428;13.302;2023-11-18T01:37:06;5.00;99.90
35796;DHT22;21916;52.428;13.302;2023-11-18T01:39:34;5.00;99.90
35796;DHT22;21916;52.428;13.302;2023-11-18T01:42:00;5.20;99.90
35796;DHT22;21916;52.428;13.302;2023-11-18T01:44:26;4.90;99.90
35796;DHT22;21916;52.428;13.302;2023-11-18T01:46:57;5.00;99.90
35796;DHT22;21916;52.428;13.302;2023-11-18T01:49:24;5.00;99.90
35796;DHT22;21916;52.428;13.302;2023-11-18T01:51:53;5.00;99.90
35796;DHT22;21916;52.428;13.302;2023-11-18T01:54:19;5.00;99.90
35796;DHT22;21916;52.428;13.302;2023-11-18T01:56:48;5.00;99.90
35796;DHT22;21916;52.428;13.302;2023-11-18T01:59:15;4.90;99.90
35796;DHT22;21916;52.428;13.302;2023-11-18T02:01:53;5.00;99.90
35796;DHT22;21916;52.428;13.302;2023-11-18T02:04:20;5.10;99.90
35796;DHT22;21916;52.428;13.302;2023-11-18T02:06:48;5.10;99.90
35796;DHT22;21916;52.428;13.302;2023-11-18T02:09:18;5.10;99.90
35796;DHT22;21916;52.428;13.302;2023-11-18T02:11:51;5.10;99.90
35796;DHT22;21916;52.428;13.302;2023-11-18T02:14:20;5.00;99.90
35796;DHT22;21916;52.428;13.302;2023-11-18T02:16:49;5.00;99.90
35796;DHT22;21916;52.428;13.302;2023-11-18T02:19:24;4.90;99.90
35796;DHT22;21916;52.428;13.302;2023-11-18T02:21:52;5.00;99.90
35796;DHT22;21916;52.428;13.302;2023-11-18T02:24:29;5.00;99.90
35796;DHT22;21916;52.428;13.302;2023-11-18T02:26:57;5.00;99.90
35796;DHT22;21916;52.428;13.302;2023-11-18T02:29:25;5.00;99.90
35796;DHT22;21916;52.428;13.302;2023-11-18T02:31:56;5.00;99.90
35796;DHT22;21916;52.428;13.302;2023-11-18T02:34:28;5.00;99.90
35796;DHT22;21916;52.428;13.302;2023-11-18T02:36:56;5.00;99.90
35796;DHT22;21916;52.428;13.302;2023-11-18T02:39:36;4.80;99.90
35796;DHT22;21916;52.428;13.302;2023-11-18T02:42:08;4.90;99.90
35796;DHT22;21916;52.428;13.302;2023-11-18T02:44:35;4.90;99.90
35796;DHT22;21916;52.428;13.302;2023-11-18T02:47:03;4.90;99.90
35796;DHT22;21916;52.428;13.302;2023-11-18T02:49:31;5.00;99.90
35796;DHT22;21916;52.428;13.302;2023-11-18T02:51:57;5.00;99.90
35796;DHT22;21916;52.428;13.302;2023-11-18T02:54:23;5.00;99.90
35796;DHT22;21916;52.428;13.302;2023-11-18T02:56:49;5.00;99.90
35796;DHT22;21916;52.428;13.302;2023-11-18T02:59:18;5.00;99.90
35796;DHT22;21916;52.428;13.302;2023-11-18T03:01:43;5.00;99.90
35796;DHT22;21916;52.428;13.302;2023-11-18T03:04:10;5.10;99.90
35796;DHT22;21916;52.428;13.302;2023-11-18T03:06:36;5.00;99.90
35796;DHT22;21916;52.428;13.302;2023-11-18T03:09:03;5.10;99.90
35796;DHT22;21916;52.428;13.302;2023-11-18T03:11:33;5.10;99.90
35796;DHT22;21916;52.428;13.302;2023-11-18T03:14:00;5.10;99.90
35796;DHT22;21916;52.428;13.302;2023-11-18T03:16:26;5.00;99.90
35796;DHT22;21916;52.428;13.302;2023-11-18T03:18:53;5.00;99.90
35796;DHT22;21916;52.428;13.302;2023-11-18T03:21:20;4.90;99.90
35796;DHT22;21916;52.428;13.302;2023-11-18T03:23:46;4.90;99.90
35796;DHT22;21916;52.428;13.302;2023-11-18T03:26:12;4.90;99.90
35796;DHT22;21916;52.428;13.302;2023-11-18T03:28:38;4.90;99.90
35796;DHT22;21916;52.428;13.302;2023-11-18T03:31:04;4.90;99.90
35796;DHT22;21916;52.428;13.302;2023-11-18T03:33:30;4.90;99.90
35796;DHT22;21916;52.428;13.302;2023-11-18T03:35:56;4.90;99.90
35796;DHT22;21916;52.428;13.302;2023-11-18T03:38:22;4.90;99.90
35796;DHT22;21916;52.428;13.302;2023-11-18T03:40:49;4.80;99.90
35796;DHT22;21916;52.428;13.302;2023-11-18T03:43:15;4.90;99.90
35796;DHT22;21916;52.428;13.302;2023-11-18T03:45:42;4.90;99.90
35796;DHT22;21916;52.428;13.302;2023-11-18T03:48:08;4.80;99.90
35796;DHT22;21916;52.428;13.302;2023-11-18T03:50:34;4.70;99.90
35796;DHT22;21916;52.428;13.302;2023-11-18T03:53:03;4.80;99.90
35796;DHT22;21916;52.428;13.302;2023-11-18T03:55:30;4.70;99.90
35796;DHT22;21916;52.428;13.302;2023-11-18T03:57:56;4.80;99.90
35796;DHT22;21916;52.428;13.302;2023-11-18T04:00:22;4.70;99.90
35796;DHT22;21916;52.428;13.302;2023-11-18T04:02:58;4.70;99.90
35796;DHT22;21916;52.428;13.302;2023-11-18T04:05:23;4.70;99.90
35796;DHT22;21916;52.428;13.302;2023-11-18T04:07:49;4.80;99.90
35796;DHT22;21916;52.428;13.302;2023-11-18T04:10:15;4.70;99.90
35796;DHT22;21916;52.428;13.302;2023-11-18T04:12:53;4.80;99.90
35796;DHT22;21916;52.428;13.302;2023-11-18T04:15:18;4.80;99.90
35796;DHT22;21916;52.428;13.302;2023-11-18T04:17:44;4.80;99.90
35796;DHT22;21916;52.428;13.302;2023-11-18T04:20:11;4.70;99.90
35796;DHT22;21916;52.428;13.302;2023-11-18T04:22:41;4.80;99.90
35796;DHT22;21916;52.428;13.302;2023-11-18T04:25:11;4.80;99.90
35796;DHT22;21916;52.428;13.302;2023-11-18T04:27:40;4.80;99.90
35796;DHT22;21916;52.428;13.302;2023-11-18T04:30:09;4.70;99.90
35796;DHT22;21916;52.428;13.302;2023-11-18T04:32:37;4.70;99.90
35796;DHT22;21916;52.428;13.302;2023-11-18T04:35:03;4.70;99.90
35796;DHT22;21916;52.428;13.302;2023-11-18T04:37:37;4.70;99.90
35796;DHT22;21916;52.428;13.302;2023-11-18T04:40:06;4.70;99.90
35796;DHT22;21916;52.428;13.302;2023-11-18T04:42:40;4.60;99.90
35796;DHT22;21916;52.428;13.302;2023-11-18T04:45:06;4.70;99.90
35796;DHT22;21916;52.428;13.302;2023-11-18T04:47:35;4.70;99.90
35796;DHT22;21916;52.428;13.302;2023-11-18T04:50:02;4.70;99.90
35796;DHT22;21916;52.428;13.302;2023-11-18T04:52:31;4.70;99.90
35796;DHT22;21916;52.428;13.302;2023-11-18T04:55:00;4.60;99.90
35796;DHT22;21916;52.428;13.302;2023-11-18T04:57:26;4.60;99.90
35796;DHT22;21916;52.428;13.302;2023-11-18T04:59:52;4.60;99.90
35796;DHT22;21916;52.428;13.302;2023-11-18T05:02:18;4.60;99.90
35796;DHT22;21916;52.428;13.302;2023-11-18T05:04:45;4.60;99.90
35796;DHT22;21916;52.428;13.302;2023-11-18T05:07:10;4.60;99.90
35796;DHT22;21916;52.428;13.302;2023-11-18T05:09:36;4.60;99.90
35796;DHT22;21916;52.428;13.302;2023-11-18T05:12:03;4.60;99.90
35796;DHT22;21916;52.428;13.302;2023-11-18T05:14:30;4.60;99.90
35796;DHT22;21916;52.428;13.302;2023-11-18T05:16:58;4.50;99.90
35796;DHT22;21916;52.428;13.302;2023-11-18T05:19:23;4.60;99.90
35796;DHT22;21916;52.428;13.302;2023-11-18T05:21:50;4.60;99.90
35796;DHT22;21916;52.428;13.302;2023-11-18T05:24:16;4.70;99.90
35796;DHT22;21916;52.428;13.302;2023-11-18T05:26:42;4.60;99.90
35796;DHT22;21916;52.428;13.302;2023-11-18T05:29:07;4.50;99.90
35796;DHT22;21916;52.428;13.302;2023-11-18T05:31:33;4.60;99.90
35796;DHT22;21916;52.428;13.302;2023-11-18T05:33:59;4.60;99.90
35796;DHT22;21916;52.428;13.302;2023-11-18T05:36:25;4.50;99.90
35796;DHT22;21916;52.428;13.302;2023-11-18T05:38:55;4.60;99.90
35796;DHT22;21916;52.428;13.302;2023-11-18T05:41:21;4.50;99.90
35796;DHT22;21916;52.428;13.302;2023-11-18T05:43:54;4.50;99.90
35796;DHT22;21916;52.428;13.302;2023-11-18T05:46:23;4.50;99.90
35796;DHT22;21916;52.428;13.302;2023-11-18T05:48:55;4.40;99.90
35796;DHT22;21916;52.428;13.302;2023-11-18T05:51:25;4.60;99.90
35796;DHT22;21916;52.428;13.302;2023-11-18T05:53:52;4.60;99.90
35796;DHT22;21916;52.428;13.302;2023-11-18T05:56:19;4.60;99.90
35796;DHT22;21916;52.428;13.302;2023-11-18T05:58:48;4.50;99.90
35796;DHT22;21916;52.428;13.302;2023-11-18T06:01:14;4.50;99.90
35796;DHT22;21916;52.428;13.302;2023-11-18T06:03:42;4.50;99.90
35796;DHT22;21916;52.428;13.302;2023-11-18T06:06:12;4.50;99.90
35796;DHT22;21916;52.428;13.302;2023-11-18T06:08:39;4.50;99.90
35796;DHT22;21916;52.428;13.302;2023-11-18T06:11:10;4.40;99.90
35796;DHT22;21916;52.428;13.302;2023-11-18T06:13:49;4.40;99.90
35796;DHT22;21916;52.428;13.302;2023-11-18T06:16:20;4.60;99.90
35796;DHT22;21916;52.428;13.302;2023-11-18T06:18:47;4.60;99.90
35796;DHT22;21916;52.428;13.302;2023-11-18T06:21:17;4.60;99.90
35796;DHT22;21916;52.428;13.302;2023-11-18T06:23:45;4.50;99.90
35796;DHT22;21916;52.428;13.302;2023-11-18T06:26:14;4.60;99.90
35796;DHT22;21916;52.428;13.302;2023-11-18T06:28:41;4.60;99.90
35796;DHT22;21916;52.428;13.302;2023-11-18T06:31:08;4.60;99.90
35796;DHT22;21916;52.428;13.302;2023-11-18T06:33:38;4.70;99.90
35796;DHT22;21916;52.428;13.302;2023-11-18T06:36:09;4.80;99.90
35796;DHT22;21916;52.428;13.302;2023-11-18T06:38:34;4.80;99.90
35796;DHT22;21916;52.428;13.302;2023-11-18T06:41:00;4.80;99.90
35796;DHT22;21916;52.428;13.302;2023-11-18T06:43:29;4.70;99.90
35796;DHT22;21916;52.428;13.302;2023-11-18T06:46:08;4.70;99.90
35796;DHT22;21916;52.428;13.302;2023-11-18T06:48:36;4.70;99.90
35796;DHT22;21916;52.428;13.302;2023-11-18T06:51:02;4.70;99.90
35796;DHT22;21916;52.428;13.302;2023-11-18T06:53:31;4.80;99.90
35796;DHT22;21916;52.428;13.302;2023-11-18T06:56:00;4.70;99.90
35796;DHT22;21916;52.428;13.302;2023-11-18T06:58:26;4.70;99.90
35796;DHT22;21916;52.428;13.302;2023-11-18T07:00:53;4.70;99.90
35796;DHT22;21916;52.428;13.302;2023-11-18T07:03:20;4.70;99.90
35796;DHT22;21916;52.428;13.302;2023-11-18T07:05:47;4.90;99.90
35796;DHT22;21916;52.428;13.302;2023-11-18T07:08:12;4.80;99.90
35796;DHT22;21916;52.428;13.302;2023-11-18T07:10:40;4.80;99.90
35796;DHT22;21916;52.428;13.302;2023-11-18T07:13:07;4.90;99.90
35796;DHT22;21916;52.428;13.302;2023-11-18T07:15:36;4.90;99.90
35796;DHT22;21916;52.428;13.302;2023-11-18T07:18:04;5.00;99.90
35796;DHT22;21916;52.428;13.302;2023-11-18T07:20:30;5.00;99.90
35796;DHT22;21916;52.428;13.302;2023-11-18T07:22:56;5.00;99.90
35796;DHT22;21916;52.428;13.302;2023-11-18T07:25:21;4.90;99.90
35796;DHT22;21916;52.428;13.302;2023-11-18T07:27:48;5.00;99.90
35796;DHT22;21916;52.428;13.302;2023-11-18T07:30:15;5.00;99.90
35796;DHT22;21916;52.428;13.302;2023-11-18T07:32:41;5.10;99.90
35796;DHT22;21916;52.428;13.302;2023-11-18T07:35:07;5.10;99.90
35796;DHT22;21916;52.428;13.302;2023-11-18T07:37:38;5.10;99.90
35796;DHT22;21916;52.428;13.302;2023-11-18T07:40:05;5.20;99.90
35796;DHT22;21916;52.428;13.302;2023-11-18T07:42:31;5.30;99.90
35796;DHT22;21916;52.428;13.302;2023-11-18T07:45:04;5.20;99.90
35796;DHT22;21916;52.428;13.302;2023-11-18T07:47:30;5.20;99.90
35796;DHT22;21916;52.428;13.302;2023-11-18T07:49:58;5.20;99.90
35796;DHT22;21916;52.428;13.302;2023-11-18T07:52:29;5.10;99.90
35796;DHT22;21916;52.428;13.302;2023-11-18T07:54:55;5.20;99.90
35796;DHT22;21916;52.428;13.302;2023-11-18T07:57:22;5.10;99.90
35796;DHT22;21916;52.428;13.302;2023-11-18T07:59:49;5.10;99.90
35796;DHT22;21916;52.428;13.302;2023-11-18T08:02:16;5.00;99.90
35796;DHT22;21916;52.428;13.302;2023-11-18T08:04:44;4.90;99.90
35796;DHT22;21916;52.428;13.302;2023-11-18T08:07:11;5.00;99.90
35796;DHT22;21916;52.428;13.302;2023-11-18T08:09:37;5.10;99.90
35796;DHT22;21916;52.428;13.302;2023-11-18T08:12:05;5.20;99.90
35796;DHT22;21916;52.428;13.302;2023-11-18T08:14:35;5.30;99.90
35796;DHT22;21916;52.428;13.302;2023-11-18T08:17:01;5.50;99.90
35796;DHT22;21916;52.428;13.302;2023-11-18T08:19:27;5.60;99.90
35796;DHT22;21916;52.428;13.302;2023-11-18T08:21:53;5.60;99.90
35796;DHT22;21916;52.428;13.302;2023-11-18T08:24:20;5.60;99.90
35796;DHT22;21916;52.428;13.302;2023-11-18T08:26:55;5.80;99.90
35796;DHT22;21916;52.428;13.302;2023-11-18T08:29:21;5.90;99.90
35796;DHT22;21916;52.428;13.302;2023-11-18T08:31:47;5.60;99.90
35796;DHT22;21916;52.428;13.302;2023-11-18T08:34:13;5.40;99.90
35796;DHT22;21916;52.428;13.302;2023-11-18T08:36:39;5.30;99.90
35796;DHT22;21916;52.428;13.302;2023-11-18T08:39:05;5.40;99.90
35796;DHT22;21916;52.428;13.302;2023-11-18T08:41:31;5.40;99.90
35796;DHT22;21916;52.428;13.302;2023-11-18T08:43:56;5.50;99.90
35796;DHT22;21916;52.428;13.302;2023-11-18T08:46:23;5.60;99.90
35796;DHT22;21916;52.428;13.302;2023-11-18T08:48:49;5.40;99.90
35796;DHT22;21916;52.428;13.302;2023-11-18T08:51:15;5.50;99.90
35796;DHT22;21916;52.428;13.302;2023-11-18T08:53:42;5.70;99.90
35796;DHT22;21916;52.428;13.302;2023-11-18T08:56:09;5.90;99.90
35796;DHT22;21916;52.428;13.302;2023-11-18T08:58:44;5.70;99.90
35796;DHT22;21916;52.428;13.302;2023-11-18T09:01:14;5.50;99.90
35796;DHT22;21916;52.428;13.302;2023-11-18T09:03:41;5.60;99.90
35796;DHT22;21916;52.428;13.302;2023-11-18T09:06:17;5.60;99.90
35796;DHT22;21916;52.428;13.302;2023-11-18T09:08:45;5.70;99.90
35796;DHT22;21916;52.428;13.302;2023-11-18T09:11:14;5.60;99.90
35796;DHT22;21916;52.428;13.302;2023-11-18T09:13:43;5.60;99.90
35796;DHT22;21916;52.428;13.302;2023-11-18T09:16:11;5.40;99.90
35796;DHT22;21916;52.428;13.302;2023-11-18T09:18:39;5.30;99.90
35796;DHT22;21916;52.428;13.302;2023-11-18T09:21:06;5.40;99.90
35796;DHT22;21916;52.428;13.302;2023-11-18T09:23:41;5.50;99.90
35796;DHT22;21916;52.428;13.302;2023-11-18T09:26:07;5.40;99.90
35796;DHT22;21916;52.428;13.302;2023-11-18T09:28:39;5.50;99.90
35796;DHT22;21916;52.428;13.302;2023-11-18T09:31:06;5.60;99.90
35796;DHT22;21916;52.428;13.302;2023-11-18T09:33:45;5.70;99.90
35796;DHT22;21916;52.428;13.302;2023-11-18T09:36:19;5.70;99.90
35796;DHT22;21916;52.428;13.302;2023-11-18T09:38:48;5.70;99.90
35796;DHT22;21916;52.428;13.302;2023-11-18T09:41:19;5.80;99.90
35796;DHT22;21916;52.428;13.302;2023-11-18T09:43:50;6.00;99.90
35796;DHT22;21916;52.428;13.302;2023-11-18T09:46:28;5.90;99.90
35796;DHT22;21916;52.428;13.302;2023-11-18T09:49:05;5.80;99.90
35796;DHT22;21916;52.428;13.302;2023-11-18T09:51:57;5.90;99.90
35796;DHT22;21916;52.428;13.302;2023-11-18T09:54:44;6.20;99.90
35796;DHT22;21916;52.428;13.302;2023-11-18T09:57:32;6.30;99.90
35796;DHT22;21916;52.428;13.302;2023-11-18T10:00:11;6.60;99.90
35796;DHT22;21916;52.428;13.302;2023-11-18T10:02:55;6.50;99.90
35796;DHT22;21916;52.428;13.302;2023-11-18T10:05:29;6.60;99.90
35796;DHT22;21916;52.428;13.302;2023-11-18T10:07:56;6.50;99.90
35796;DHT22;21916;52.428;13.302;2023-11-18T10:10:25;6.60;99.90
35796;DHT22;21916;52.428;13.302;2023-11-18T10:13:02;6.70;99.90
35796;DHT22;21916;52.428;13.302;2023-11-18T10:15:30;6.80;99.90
35796;DHT22;21916;52.428;13.302;2023-11-18T10:17:57;6.90;99.90
35796;DHT22;21916;52.428;13.302;2023-11-18T10:23:16;6.50;99.90
35796;DHT22;21916;52.428;13.302;2023-11-18T10:25:55;6.70;99.90
35796;DHT22;21916;52.428;13.302;2023-11-18T10:30:57;6.70;99.90
35796;DHT22;21916;52.428;13.302;2023-11-18T10:33:54;6.70;99.90
35796;DHT22;21916;52.428;13.302;2023-11-18T10:36:22;6.60;99.90
35796;DHT22;21916;52.428;13.302;2023-11-18T10:38:49;6.60;99.90
35796;DHT22;21916;52.428;13.302;2023-11-18T10:41:18;6.60;99.90
35796;DHT22;21916;52.428;13.302;2023-11-18T10:43:45;6.60;99.90
35796;DHT22;21916;52.428;13.302;2023-11-18T10:46:12;6.50;99.90
35796;DHT22;21916;52.428;13.302;2023-11-18T10:48:48;6.50;99.90
35796;DHT22;21916;52.428;13.302;2023-11-18T10:51:34;6.40;99.90
35796;DHT22;21916;52.428;13.302;2023-11-18T10:54:04;6.40;99.90
35796;DHT22;21916;52.428;13.302;2023-11-18T10:56:46;6.20;99.90
35796;DHT22;21916;52.428;13.302;2023-11-18T10:59:12;6.20;99.90
35796;DHT22;21916;52.428;13.302;2023-11-18T11:02:40;6.10;99.90
35796;DHT22;21916;52.428;13.302;2023-11-18T11:05:10;6.10;99.90
35796;DHT22;21916;52.428;13.302;2023-11-18T11:07:45;6.10;99.90
35796;DHT22;21916;52.428;13.302;2023-11-18T11:10:14;6.00;99.90
35796;DHT22;21916;52.428;13.302;2023-11-18T11:12:50;6.10;99.90
35796;DHT22;21916;52.428;13.302;2023-11-18T11:15:26;6.20;99.90
35796;DHT22;21916;52.428;13.302;2023-11-18T11:17:54;6.30;99.90
35796;DHT22;21916;52.428;13.302;2023-11-18T11:20:34;6.10;99.90
35796;DHT22;21916;52.428;13.302;2023-11-18T11:23:33;6.30;99.90
35796;DHT22;21916;52.428;13.302;2023-11-18T11:26:37;6.30;99.90
35796;DHT22;21916;52.428;13.302;2023-11-18T11:35:01;6.30;99.90
35796;DHT22;21916;52.428;13.302;2023-11-18T11:37:34;6.20;99.90
35796;DHT22;21916;52.428;13.302;2023-11-18T11:40:04;6.30;99.90
35796;DHT22;21916;52.428;13.302;2023-11-18T11:42:35;6.10;99.90
35796;DHT22;21916;52.428;13.302;2023-11-18T11:45:01;6.20;99.90
35796;DHT22;21916;52.428;13.302;2023-11-18T11:47:29;6.10;99.90
35796;DHT22;21916;52.428;13.302;2023-11-18T11:50:16;6.00;99.90
35796;DHT22;21916;52.428;13.302;2023-11-18T11:52:55;6.20;99.90
35796;DHT22;21916;52.428;13.302;2023-11-18T11:55:33;6.50;99.90
35796;DHT22;21916;52.428;13.302;2023-11-18T11:58:02;6.50;99.90
35796;DHT22;21916;52.428;13.302;2023-11-18T12:00:27;6.70;99.90
35796;DHT22;21916;52.428;13.302;2023-11-18T12:03:01;7.00;99.90
35796;DHT22;21916;52.428;13.302;2023-11-18T12:05:30;7.00;99.90
35796;DHT22;21916;52.428;13.302;2023-11-18T12:07:59;7.10;99.90
35796;DHT22;21916;52.428;13.302;2023-11-18T12:10:35;7.00;99.90
35796;DHT22;21916;52.428;13.302;2023-11-18T12:13:11;7.20;99.90
35796;DHT22;21916;52.428;13.302;2023-11-18T12:15:52;7.10;99.90
35796;DHT22;21916;52.428;13.302;2023-11-18T12:18:29;7.00;99.90
35796;DHT22;21916;52.428;13.302;2023-11-18T12:20:59;7.00;99.90
35796;DHT22;21916;52.428;13.302;2023-11-18T12:23:28;6.90;99.90
35796;DHT22;21916;52.428;13.302;2023-11-18T12:25:54;7.10;99.90
35796;DHT22;21916;52.428;13.302;2023-11-18T12:28:32;7.30;99.90
35796;DHT22;21916;52.428;13.302;2023-11-18T12:31:02;7.50;99.90
35796;DHT22;21916;52.428;13.302;2023-11-18T12:42:02;8.20;99.90
35796;DHT22;21916;52.428;13.302;2023-11-18T12:47:14;8.30;99.90
35796;DHT22;21916;52.428;13.302;2023-11-18T12:49:45;8.50;99.90
35796;DHT22;21916;52.428;13.302;2023-11-18T12:52:15;8.40;99.90
35796;DHT22;21916;52.428;13.302;2023-11-18T12:54:44;8.70;99.90
35796;DHT22;21916;52.428;13.302;2023-11-18T12:57:17;9.10;99.90
35796;DHT22;21916;52.428;13.302;2023-11-18T12:59:45;9.80;99.90
35796;DHT22;21916;52.428;13.302;2023-11-18T13:02:12;10.30;99.90
35796;DHT22;21916;52.428;13.302;2023-11-18T13:04:46;11.20;99.90
35796;DHT22;21916;52.428;13.302;2023-11-18T13:07:18;12.50;99.90
35796;DHT22;21916;52.428;13.302;2023-11-18T13:09:44;13.70;99.90
35796;DHT22;21916;52.428;13.302;2023-11-18T13:12:12;14.00;99.90
35796;DHT22;21916;52.428;13.302;2023-11-18T13:14:41;13.60;99.90
35796;DHT22;21916;52.428;13.302;2023-11-18T13:17:12;12.80;99.90
35796;DHT22;21916;52.428;13.302;2023-11-18T13:19:39;12.50;99.90
35796;DHT22;21916;52.428;13.302;2023-11-18T13:22:07;11.70;99.90
35796;DHT22;21916;52.428;13.302;2023-11-18T13:24:40;11.70;99.90
35796;DHT22;21916;52.428;13.302;2023-11-18T13:27:12;11.70;99.90
35796;DHT22;21916;52.428;13.302;2023-11-18T13:29:42;12.00;99.90
35796;DHT22;21916;52.428;13.302;2023-11-18T13:32:11;12.20;99.90
35796;DHT22;21916;52.428;13.302;2023-11-18T13:34:39;11.90;99.90
35796;DHT22;21916;52.428;13.302;2023-11-18T13:37:10;11.60;99.90
35796;DHT22;21916;52.428;13.302;2023-11-18T13:39:44;11.10;99.90
35796;DHT22;21916;52.428;13.302;2023-11-18T13:42:19;10.40;99.90
35796;DHT22;21916;52.428;13.302;2023-11-18T13:44:46;10.30;99.90
35796;DHT22;21916;52.428;13.302;2023-11-18T13:47:16;9.50;99.90
35796;DHT22;21916;52.428;13.302;2023-11-18T13:49:43;9.20;99.90
35796;DHT22;21916;52.428;13.302;2023-11-18T13:52:09;9.10;99.90
35796;DHT22;21916;52.428;13.302;2023-11-18T13:54:40;9.00;99.90
35796;DHT22;21916;52.428;13.302;2023-11-18T13:57:08;8.90;99.90
35796;DHT22;21916;52.428;13.302;2023-11-18T13:59:35;8.70;99.90
35796;DHT22;21916;52.428;13.302;2023-11-18T14:02:01;8.50;99.90
35796;DHT22;21916;52.428;13.302;2023-11-18T14:04:30;8.40;99.90
35796;DHT22;21916;52.428;13.302;2023-11-18T14:07:03;8.20;99.90
35796;DHT22;21916;52.428;13.302;2023-11-18T14:09:35;8.10;99.90
35796;DHT22;21916;52.428;13.302;2023-11-18T14:12:10;7.80;99.90
35796;DHT22;21916;52.428;13.302;2023-11-18T14:14:36;7.70;99.90
35796;DHT22;21916;52.428;13.302;2023-11-18T14:17:04;7.70;99.90
35796;DHT22;21916;52.428;13.302;2023-11-18T14:19:32;7.70;99.90
35796;DHT22;21916;52.428;13.302;2023-11-18T14:22:00;7.50;99.90
35796;DHT22;21916;52.428;13.302;2023-11-18T14:24:26;7.40;99.90
35796;DHT22;21916;52.428;13.302;2023-11-18T14:26:56;7.30;99.90
35796;DHT22;21916;52.428;13.302;2023-11-18T14:29:22;7.10;99.90
35796;DHT22;21916;52.428;13.302;2023-11-18T14:31:48;7.10;99.90
35796;DHT22;21916;52.428;13.302;2023-11-18T14:34:14;7.10;99.90
35796;DHT22;21916;52.428;13.302;2023-11-18T14:36:40;7.00;99.90
35796;DHT22;21916;52.428;13.302;2023-11-18T14:39:08;6.90;99.90
35796;DHT22;21916;52.428;13.302;2023-11-18T14:41:36;6.70;99.90
35796;DHT22;21916;52.428;13.302;2023-11-18T14:44:02;6.70;99.90
35796;DHT22;21916;52.428;13.302;2023-11-18T14:46:35;6.70;99.90
35796;DHT22;21916;52.428;13.302;2023-11-18T14:49:01;6.80;99.90
35796;DHT22;21916;52.428;13.302;2023-11-18T14:51:26;6.70;99.90
35796;DHT22;21916;52.428;13.302;2023-11-18T14:53:52;6.70;99.90
35796;DHT22;21916;52.428;13.302;2023-11-18T14:56:19;6.60;99.90
35796;DHT22;21916;52.428;13.302;2023-11-18T14:58:45;6.50;99.90
35796;DHT22;21916;52.428;13.302;2023-11-18T15:01:15;6.60;99.90
35796;DHT22;21916;52.428;13.302;2023-11-18T15:03:40;6.50;99.90
35796;DHT22;21916;52.428;13.302;2023-11-18T15:06:07;6.40;99.90
35796;DHT22;21916;52.428;13.302;2023-11-18T15:08:35;6.50;99.90
35796;DHT22;21916;52.428;13.302;2023-11-18T15:11:01;6.30;99.90
35796;DHT22;21916;52.428;13.302;2023-11-18T15:13:27;6.40;99.90
35796;DHT22;21916;52.428;13.302;2023-11-18T15:15:53;6.40;99.90
35796;DHT22;21916;52.428;13.302;2023-11-18T15:18:20;6.30;99.90
35796;DHT22;21916;52.428;13.302;2023-11-18T15:20:47;6.10;99.90
35796;DHT22;21916;52.428;13.302;2023-11-18T15:23:14;6.20;99.90
35796;DHT22;21916;52.428;13.302;2023-11-18T15:25:45;6.10;99.90
35796;DHT22;21916;52.428;13.302;2023-11-18T15:28:12;6.10;99.90
35796;DHT22;21916;52.428;13.302;2023-11-18T15:30:40;5.90;99.90
35796;DHT22;21916;52.428;13.302;2023-11-18T15:33:06;5.90;99.90
35796;DHT22;21916;52.428;13.302;2023-11-18T15:35:37;6.00;99.90
35796;DHT22;21916;52.428;13.302;2023-11-18T15:38:07;6.10;99.90
35796;DHT22;21916;52.428;13.302;2023-11-18T15:40:35;6.10;99.90
35796;DHT22;21916;52.428;13.302;2023-11-18T15:43:04;6.00;99.90
35796;DHT22;21916;52.428;13.302;2023-11-18T15:45:34;6.10;99.90
35796;DHT22;21916;52.428;13.302;2023-11-18T15:48:00;6.10;99.90
35796;DHT22;21916;52.428;13.302;2023-11-18T15:50:26;6.10;99.90
35796;DHT22;21916;52.428;13.302;2023-11-18T15:52:55;6.00;99.90
35796;DHT22;21916;52.428;13.302;2023-11-18T15:55:23;6.00;99.90
35796;DHT22;21916;52.428;13.302;2023-11-18T15:57:54;5.90;99.90
35796;DHT22;21916;52.428;13.302;2023-11-18T16:00:22;5.90;99.90
35796;DHT22;21916;52.428;13.302;2023-11-18T16:02:52;5.80;99.90
35796;DHT22;21916;52.428;13.302;2023-11-18T16:05:27;5.70;99.90